Terminal Aerodrome Forecast
Issued by NWS

Home | Current Version | Previous Version | Text Only | Print | Product List | Glossary On
Versions: 1 2 3 4 5 6 7 8 9 10 11 12 13 14
000
FTUS44 KLIX 010500
TAFMSY
TAF
KMSY 010520Z 0106/0206 11008KT P6SM SCT040 BKN100
     FM011400 16009KT 3SM -SHRA OVC025
     FM011800 20009KT 3SM -SHRA OVC040
     FM012300 24009KT 3SM -SHRA OVC040
     FM020000 24008KT 3SM -SHRA OVC020
     FM020400 30015KT 3SM -SHRA OVC008=

USA.gov is the U.S. government's official web portal to all federal, state and local government web resources and services.